createdAt,value
2023-03-15T00:00:37.231Z,23.94
2023-03-15T00:01:37.281Z,23.94
2023-03-15T00:02:37.409Z,23.94
2023-03-15T00:03:37.679Z,23.93
2023-03-15T00:04:37.372Z,23.95
2023-03-15T00:07:37.516Z,23.93
2023-03-15T00:08:37.644Z,23.93
2023-03-15T00:09:37.629Z,23.94
2023-03-15T00:10:37.673Z,23.94
2023-03-15T00:11:37.712Z,23.94
2023-03-15T00:12:37.764Z,23.94
2023-03-15T00:13:37.800Z,23.93
2023-03-15T00:14:37.833Z,23.94
2023-03-15T00:15:37.895Z,23.95
2023-03-15T00:16:37.889Z,23.95
2023-03-15T00:17:37.966Z,23.94
2023-03-15T00:18:37.989Z,23.93
2023-03-15T00:19:38.052Z,23.94
2023-03-15T00:20:38.077Z,23.92
2023-03-15T00:21:38.131Z,23.93
2023-03-15T00:22:38.166Z,23.93
2023-03-15T00:23:38.222Z,23.93
2023-03-15T00:24:38.268Z,23.92
2023-03-15T00:25:38.331Z,23.93
2023-03-15T00:26:38.348Z,23.93
2023-03-15T00:27:38.408Z,23.92
2023-03-15T00:28:38.401Z,23.93
2023-03-15T00:29:38.482Z,23.93
2023-03-15T00:30:38.489Z,23.93
2023-03-15T00:31:38.560Z,23.92
2023-03-15T00:33:38.645Z,23.92
2023-03-15T00:34:38.696Z,23.93
2023-03-15T00:35:38.784Z,23.92
2023-03-15T00:36:38.768Z,23.92
2023-03-15T00:37:38.827Z,23.92
2023-03-15T00:38:38.842Z,23.92
2023-03-15T00:39:38.883Z,23.92
2023-03-15T00:40:38.935Z,23.92
2023-03-15T00:41:38.981Z,23.92
2023-03-15T00:42:39.014Z,23.92
2023-03-15T00:45:39.131Z,23.92
2023-03-15T00:46:39.249Z,23.92
2023-03-15T00:48:39.318Z,23.92
2023-03-15T00:49:39.324Z,23.93
2023-03-15T00:50:39.385Z,23.92
2023-03-15T00:51:39.415Z,23.92
2023-03-15T00:52:39.551Z,23.92
2023-03-15T00:53:39.497Z,23.92
2023-03-15T00:54:39.566Z,23.92
2023-03-15T00:55:39.612Z,23.92
2023-03-15T00:56:39.675Z,23.92
2023-03-15T00:57:39.701Z,23.92
2023-03-15T00:59:39.797Z,23.91
2023-03-15T01:00:39.860Z,23.91
2023-03-15T01:01:39.922Z,23.91
2023-03-15T01:02:39.943Z,23.91
2023-03-15T01:03:39.972Z,23.91
2023-03-15T01:04:40.024Z,23.90
2023-03-15T01:05:40.091Z,23.91
2023-03-15T01:06:40.104Z,23.91
2023-03-15T01:07:40.172Z,23.91
2023-03-15T01:08:40.219Z,23.91
2023-03-15T01:09:40.251Z,23.90
2023-03-15T01:10:40.316Z,23.90
2023-03-15T01:11:40.346Z,23.91
2023-03-15T01:12:40.422Z,23.90
2023-03-15T01:13:40.429Z,23.90
2023-03-15T01:14:40.531Z,23.91
2023-03-15T01:15:40.560Z,23.90
2023-03-15T01:16:40.569Z,23.91
2023-03-15T01:17:40.619Z,23.90
2023-03-15T01:18:40.697Z,23.90
2023-03-15T01:19:40.769Z,23.90
2023-03-15T01:20:40.787Z,23.90
2023-03-15T01:21:40.839Z,23.90
2023-03-15T01:22:40.855Z,23.90
2023-03-15T01:23:40.904Z,23.90
2023-03-15T01:24:40.964Z,23.90
2023-03-15T01:25:40.985Z,23.90
2023-03-15T01:26:41.042Z,23.90
2023-03-15T01:27:41.112Z,23.90
2023-03-15T01:28:41.160Z,23.90
2023-03-15T01:29:41.170Z,23.91
2023-03-15T01:30:41.211Z,23.91
2023-03-15T01:31:41.304Z,23.91
2023-03-15T01:32:41.328Z,23.91
2023-03-15T01:33:41.379Z,23.91
2023-03-15T01:34:41.416Z,23.90
2023-03-15T01:35:41.481Z,23.90
2023-03-15T01:36:41.473Z,23.90
2023-03-15T01:37:41.507Z,23.90
2023-03-15T01:38:41.553Z,23.91
2023-03-15T01:39:41.613Z,23.90
2023-03-15T01:40:41.655Z,23.90
2023-03-15T01:41:41.760Z,23.90
2023-03-15T01:42:41.754Z,23.90
2023-03-15T01:43:41.775Z,23.90
2023-03-15T01:44:41.840Z,23.90
2023-03-15T01:45:41.905Z,23.90
2023-03-15T01:46:41.997Z,23.90
2023-03-15T01:47:42.017Z,23.90
2023-03-15T01:48:42.046Z,23.90
2023-03-15T01:49:42.085Z,23.90
2023-03-15T01:50:42.141Z,23.90
2023-03-15T01:51:42.136Z,23.89
2023-03-15T01:52:42.213Z,23.90
2023-03-15T01:53:42.242Z,23.90
2023-03-15T01:54:42.312Z,23.90
2023-03-15T01:55:42.348Z,23.90
2023-03-15T01:56:42.363Z,23.90
2023-03-15T01:57:42.436Z,23.91
2023-03-15T01:58:42.466Z,23.91
2023-03-15T01:59:42.528Z,23.90
2023-03-15T02:00:42.578Z,23.90
2023-03-15T02:01:42.598Z,23.90
2023-03-15T02:02:42.626Z,23.91
2023-03-15T02:03:42.672Z,23.90
2023-03-15T02:04:42.722Z,23.90
2023-03-15T02:05:42.764Z,23.90
2023-03-15T02:06:42.814Z,23.90
2023-03-15T02:07:42.830Z,23.90
2023-03-15T02:08:42.883Z,23.90
2023-03-15T02:09:42.934Z,23.90
2023-03-15T02:10:42.975Z,23.90
2023-03-15T02:11:43.028Z,23.90
2023-03-15T02:12:43.040Z,23.90
2023-03-15T02:13:43.168Z,23.89
2023-03-15T02:14:43.165Z,23.90
2023-03-15T02:15:43.203Z,23.90
2023-03-15T02:16:43.347Z,23.90
2023-03-15T02:17:43.325Z,23.90
2023-03-15T02:18:43.349Z,23.90
2023-03-15T02:19:43.411Z,23.90
2023-03-15T02:20:43.472Z,23.90
2023-03-15T02:21:43.521Z,23.90
2023-03-15T02:22:43.536Z,23.91
2023-03-15T02:23:43.589Z,23.90
2023-03-15T02:24:43.702Z,23.90
2023-03-15T02:25:43.696Z,23.91
2023-03-15T02:26:43.747Z,23.91
2023-03-15T02:27:43.784Z,23.90
2023-03-15T02:28:43.849Z,23.90
2023-03-15T02:29:43.897Z,23.90
2023-03-15T02:30:43.968Z,23.90
2023-03-15T02:31:44.126Z,23.91
2023-03-15T02:32:44.091Z,23.91
2023-03-15T02:33:44.733Z,23.91
2023-03-15T02:34:44.102Z,23.92
2023-03-15T02:35:44.197Z,23.92
2023-03-15T02:36:44.256Z,23.91
2023-03-15T02:37:44.289Z,23.91
2023-03-15T02:38:44.320Z,23.92
2023-03-15T02:39:44.349Z,23.91
2023-03-15T02:40:44.393Z,23.91
2023-03-15T02:41:44.484Z,23.91
2023-03-15T02:42:44.542Z,23.91
2023-03-15T02:43:44.550Z,23.91
2023-03-15T02:44:44.619Z,23.92
2023-03-15T02:45:44.673Z,23.92
2023-03-15T02:46:44.718Z,23.91
2023-03-15T02:47:44.748Z,23.92
2023-03-15T02:48:44.805Z,23.91
2023-03-15T02:49:44.839Z,23.91
2023-03-15T02:50:44.892Z,23.92
2023-03-15T02:51:44.914Z,23.91
2023-03-15T02:52:44.987Z,23.92
2023-03-15T02:53:45.041Z,23.92
2023-03-15T02:54:45.094Z,23.92
2023-03-15T02:56:45.167Z,23.91
2023-03-15T02:57:45.193Z,23.92
2023-03-15T02:58:45.245Z,23.92
2023-03-15T02:59:45.301Z,23.92
2023-03-15T03:00:45.344Z,23.91
2023-03-15T03:01:45.402Z,23.92
2023-03-15T03:02:45.480Z,23.91
2023-03-15T03:03:45.484Z,23.91
2023-03-15T03:04:45.533Z,23.91
2023-03-15T03:05:45.566Z,23.90
2023-03-15T03:06:45.639Z,23.90
2023-03-15T03:07:45.670Z,23.91
2023-03-15T03:08:45.741Z,23.90
2023-03-15T03:09:45.759Z,23.90
2023-03-15T03:10:45.818Z,23.90
2023-03-15T03:11:45.875Z,23.90
2023-03-15T03:12:45.918Z,23.89
2023-03-15T03:13:45.972Z,23.90
2023-03-15T03:14:46.007Z,23.90
2023-03-15T03:15:46.076Z,23.90
2023-03-15T03:16:46.128Z,23.90
2023-03-15T03:17:46.154Z,23.89
2023-03-15T03:18:46.198Z,23.89
2023-03-15T03:19:46.229Z,23.90
2023-03-15T03:20:46.320Z,23.89
2023-03-15T03:21:46.352Z,23.90
2023-03-15T03:22:46.392Z,23.89
2023-03-15T03:23:46.459Z,23.89
2023-03-15T03:24:46.514Z,23.89
2023-03-15T03:25:46.525Z,23.89
2023-03-15T03:26:46.584Z,23.90
2023-03-15T03:27:46.644Z,23.90
2023-03-15T03:28:46.685Z,23.90
2023-03-15T03:29:46.732Z,23.90
2023-03-15T03:30:46.871Z,23.90
2023-03-15T03:31:46.813Z,23.90
2023-03-15T03:32:46.915Z,23.90
2023-03-15T03:33:46.919Z,23.90
2023-03-15T03:34:46.956Z,23.91
2023-03-15T03:35:47.057Z,23.90
2023-03-15T03:36:47.062Z,23.90
2023-03-15T03:37:47.078Z,23.90
2023-03-15T03:38:47.140Z,23.91
2023-03-15T03:39:47.224Z,23.90
2023-03-15T03:40:47.266Z,23.91
2023-03-15T03:41:47.283Z,23.90
2023-03-15T03:46:47.518Z,23.91
2023-03-15T03:47:47.568Z,23.90
2023-03-15T03:48:47.608Z,23.91
2023-03-15T03:49:47.658Z,23.91
2023-03-15T03:50:47.667Z,23.91
2023-03-15T03:51:47.728Z,23.92
2023-03-15T03:52:47.760Z,23.91
2023-03-15T03:53:47.801Z,23.91
2023-03-15T03:54:47.881Z,23.92
2023-03-15T03:55:47.911Z,23.92
2023-03-15T03:56:47.948Z,23.92
2023-03-15T03:57:48.015Z,23.92
2023-03-15T03:58:48.035Z,23.92
2023-03-15T03:59:48.069Z,23.92
2023-03-15T04:00:48.122Z,23.92
2023-03-15T04:01:48.144Z,23.92
2023-03-15T04:02:48.243Z,23.93
2023-03-15T04:03:48.220Z,23.93
2023-03-15T04:04:48.400Z,23.93
2023-03-15T04:05:48.317Z,23.95
2023-03-15T04:06:48.380Z,23.95
2023-03-15T04:07:48.373Z,23.96
2023-03-15T04:08:48.411Z,23.97
2023-03-15T04:09:48.442Z,23.98
2023-03-15T04:10:48.524Z,23.99
2023-03-15T04:11:48.548Z,24.00
2023-03-15T04:12:48.559Z,24.01
2023-03-15T04:13:48.581Z,24.02
2023-03-15T04:14:48.627Z,24.03
2023-03-15T04:15:48.667Z,24.05
2023-03-15T04:16:48.696Z,24.07
2023-03-15T04:17:48.700Z,24.09
2023-03-15T04:18:48.732Z,24.10
2023-03-15T04:19:48.739Z,24.11
2023-03-15T04:20:48.753Z,24.13
2023-03-15T04:21:48.788Z,24.14
2023-03-15T04:22:48.792Z,24.16
2023-03-15T04:23:48.825Z,24.17
2023-03-15T04:24:48.846Z,24.18
2023-03-15T04:25:48.826Z,24.20
2023-03-15T04:26:48.863Z,24.21
2023-03-15T04:27:48.888Z,24.22
2023-03-15T04:28:48.852Z,24.24
2023-03-15T04:29:48.908Z,24.25
2023-03-15T04:30:48.893Z,24.27
2023-03-15T04:31:48.884Z,24.28
2023-03-15T04:32:48.946Z,24.29
2023-03-15T04:33:48.891Z,24.31
2023-03-15T04:34:48.905Z,24.32
2023-03-15T04:35:48.916Z,24.33
2023-03-15T04:36:48.878Z,24.34
2023-03-15T04:38:48.855Z,24.36
2023-03-15T04:39:48.872Z,24.36
2023-03-15T04:41:48.854Z,24.38
2023-03-15T04:42:48.854Z,24.38
2023-03-15T04:43:48.862Z,24.38
2023-03-15T04:44:48.866Z,24.39
2023-03-15T04:45:48.820Z,24.40
2023-03-15T04:46:48.876Z,24.39
2023-03-15T04:47:48.834Z,24.41
2023-03-15T04:51:48.844Z,24.42
2023-03-15T04:52:48.809Z,24.42
2023-03-15T04:53:48.832Z,24.42
2023-03-15T04:54:48.824Z,24.42
2023-03-15T04:55:48.809Z,24.42
2023-03-15T04:56:48.824Z,24.42
2023-03-15T04:57:48.822Z,24.42
2023-03-15T04:58:48.821Z,24.43
2023-03-15T04:59:48.861Z,24.43
2023-03-15T05:00:48.936Z,24.43
2023-03-15T05:01:48.829Z,24.42
2023-03-15T05:02:48.834Z,24.43
2023-03-15T05:03:48.806Z,24.43
2023-03-15T05:04:48.795Z,24.43
2023-03-15T05:05:48.813Z,24.43
2023-03-15T05:06:48.822Z,24.43
2023-03-15T05:07:48.817Z,24.43
2023-03-15T05:08:48.838Z,24.43
2023-03-15T05:09:48.811Z,24.43
2023-03-15T05:10:48.820Z,24.43
2023-03-15T05:11:48.808Z,24.42
2023-03-15T05:13:48.804Z,24.43
2023-03-15T05:14:48.842Z,24.43
2023-03-15T05:15:48.811Z,24.43
2023-03-15T05:16:48.830Z,24.43
2023-03-15T05:17:48.810Z,24.43
2023-03-15T05:18:48.803Z,24.43
2023-03-15T05:19:48.802Z,24.43
2023-03-15T05:20:48.824Z,24.43
2023-03-15T05:21:48.793Z,24.42
2023-03-15T05:22:48.821Z,24.42
2023-03-15T05:23:48.836Z,24.42
2023-03-15T05:24:48.791Z,24.42
2023-03-15T05:25:48.783Z,24.41
2023-03-15T05:26:48.795Z,24.41
2023-03-15T05:27:48.790Z,24.42
2023-03-15T05:28:48.796Z,24.43
2023-03-15T05:29:48.764Z,24.42
2023-03-15T05:30:48.769Z,24.42
2023-03-15T05:31:48.834Z,24.42
2023-03-15T05:32:48.872Z,24.42
2023-03-15T05:33:48.785Z,24.42
2023-03-15T05:34:48.843Z,24.43
2023-03-15T05:35:48.819Z,24.42
2023-03-15T05:36:48.757Z,24.43
2023-03-15T05:37:48.763Z,24.42
2023-03-15T05:38:48.770Z,24.42
2023-03-15T05:39:48.771Z,24.43
2023-03-15T05:41:48.869Z,24.43
2023-03-15T05:42:48.759Z,24.43
2023-03-15T05:43:48.758Z,24.43
2023-03-15T05:44:48.749Z,24.43
2023-03-15T05:45:48.855Z,24.44
2023-03-15T05:46:48.721Z,24.44
2023-03-15T05:47:48.735Z,24.44
2023-03-15T05:48:48.752Z,24.44
2023-03-15T05:49:48.726Z,24.44
2023-03-15T05:50:48.725Z,24.44
2023-03-15T05:51:48.756Z,24.44
2023-03-15T05:52:48.730Z,24.45
2023-03-15T05:53:48.720Z,24.45
2023-03-15T05:54:48.779Z,24.45
2023-03-15T05:55:48.732Z,24.45
2023-03-15T05:56:48.765Z,24.45
2023-03-15T05:57:48.774Z,24.45
2023-03-15T05:58:48.733Z,24.45
2023-03-15T05:59:48.773Z,24.45
2023-03-15T06:00:55.771Z,24.46
2023-03-15T06:02:48.764Z,24.46
2023-03-15T06:03:48.822Z,24.46
2023-03-15T06:04:48.723Z,24.45
2023-03-15T06:05:48.799Z,24.46
2023-03-15T06:06:48.732Z,24.45
2023-03-15T06:07:48.720Z,24.46
2023-03-15T06:08:48.761Z,24.46
2023-03-15T06:09:48.755Z,24.47
2023-03-15T06:10:48.706Z,24.46
2023-03-15T06:11:48.710Z,24.47
2023-03-15T06:12:48.772Z,24.47
2023-03-15T06:13:48.676Z,24.47
2023-03-15T06:14:48.688Z,24.47
2023-03-15T06:15:48.677Z,24.47
2023-03-15T06:16:48.685Z,24.47
2023-03-15T06:17:48.623Z,24.48
2023-03-15T06:18:48.657Z,24.47
2023-03-15T06:19:48.649Z,24.48
2023-03-15T06:20:48.630Z,24.48
2023-03-15T06:21:48.643Z,24.49
2023-03-15T06:22:48.600Z,24.48
2023-03-15T06:23:48.592Z,24.48
2023-03-15T06:24:48.593Z,24.49
2023-03-15T06:25:48.576Z,24.49
2023-03-15T06:26:48.603Z,24.49
2023-03-15T06:27:48.588Z,24.49
2023-03-15T06:28:48.587Z,24.49
2023-03-15T06:29:48.530Z,24.50
2023-03-15T06:30:48.639Z,24.50
2023-03-15T06:31:48.561Z,24.50
2023-03-15T06:32:48.557Z,24.44
2023-03-15T06:33:48.552Z,24.38
2023-03-15T06:34:48.542Z,24.23
2023-03-15T06:35:48.590Z,24.08
2023-03-15T06:36:48.524Z,23.99
2023-03-15T06:37:48.532Z,23.86
2023-03-15T06:38:48.544Z,23.76
2023-03-15T06:39:48.545Z,23.66
2023-03-15T06:40:48.814Z,23.60
2023-03-15T06:41:48.491Z,23.62
2023-03-15T06:42:48.474Z,23.66
2023-03-15T06:43:48.527Z,23.70
2023-03-15T06:44:50.137Z,23.74
2023-03-15T06:45:48.843Z,23.71
2023-03-15T06:46:55.754Z,23.70
2023-03-15T06:47:48.727Z,23.71
2023-03-15T06:48:48.705Z,23.75
2023-03-15T06:49:48.774Z,23.84
2023-03-15T06:50:48.786Z,23.96
2023-03-15T06:51:48.693Z,24.09
2023-03-15T06:52:48.677Z,24.21
2023-03-15T06:53:48.684Z,24.31
2023-03-15T06:54:48.703Z,24.41
2023-03-15T06:55:48.698Z,24.51
2023-03-15T06:56:48.674Z,24.58
2023-03-15T06:57:48.711Z,24.66
2023-03-15T06:58:48.664Z,24.75
2023-03-15T06:59:48.664Z,24.80
2023-03-15T07:00:48.634Z,24.85
2023-03-15T07:01:48.914Z,24.90
2023-03-15T07:02:48.805Z,24.96
2023-03-15T07:03:48.616Z,25.01
2023-03-15T07:04:48.612Z,25.05
2023-03-15T07:05:48.614Z,25.11
2023-03-15T07:06:48.798Z,25.17
2023-03-15T07:07:48.621Z,25.22
2023-03-15T07:08:48.591Z,25.27
2023-03-15T07:09:48.589Z,25.33
2023-03-15T07:10:48.564Z,25.39
2023-03-15T07:11:48.610Z,25.43
2023-03-15T07:12:48.622Z,25.46
2023-03-15T07:13:48.572Z,25.33
2023-03-15T07:14:48.559Z,24.72
2023-03-15T07:15:48.704Z,24.23
2023-03-15T07:16:48.853Z,23.91
2023-03-15T07:17:48.562Z,23.70
2023-03-15T07:18:48.531Z,23.68
2023-03-15T07:19:56.198Z,23.65
2023-03-15T07:20:49.539Z,23.80
2023-03-15T07:21:48.520Z,23.96
2023-03-15T07:22:48.535Z,24.12
2023-03-15T07:23:48.538Z,24.24
2023-03-15T07:24:48.511Z,24.38
2023-03-15T07:25:54.919Z,24.47
2023-03-15T07:26:49.474Z,24.53
2023-03-15T07:27:48.527Z,24.58
2023-03-15T07:28:48.463Z,24.62
2023-03-15T07:29:48.480Z,24.66
2023-03-15T07:30:48.443Z,24.70
2023-03-15T07:31:48.869Z,24.65
2023-03-15T07:32:48.586Z,24.47
2023-03-15T07:33:48.430Z,24.29
2023-03-15T07:34:48.476Z,24.35
2023-03-15T07:35:48.420Z,24.43
2023-03-15T07:36:48.812Z,24.45
2023-03-15T07:37:48.422Z,24.42
2023-03-15T07:38:48.392Z,24.41
2023-03-15T07:39:48.413Z,24.35
2023-03-15T07:40:48.396Z,24.04
2023-03-15T07:41:48.415Z,24.04
2023-03-15T07:42:48.380Z,24.16
2023-03-15T07:43:48.421Z,24.29
2023-03-15T07:44:48.537Z,24.43
2023-03-15T07:45:48.544Z,24.56
2023-03-15T07:46:48.842Z,24.69
2023-03-15T07:47:48.499Z,24.80
2023-03-15T07:48:48.557Z,24.92
2023-03-15T07:49:48.604Z,25.01
2023-03-15T07:50:48.670Z,25.10
2023-03-15T07:51:48.846Z,25.18
2023-03-15T07:52:48.837Z,25.28
2023-03-15T07:53:48.754Z,25.38
2023-03-15T07:54:48.787Z,25.44
2023-03-15T07:55:48.864Z,25.50
2023-03-15T07:56:48.862Z,25.55
2023-03-15T07:57:50.363Z,25.60
2023-03-15T07:58:48.908Z,25.65
2023-03-15T07:59:48.998Z,25.69
2023-03-15T08:00:48.819Z,25.75
2023-03-15T08:01:48.849Z,25.80
2023-03-15T08:02:48.857Z,25.85
2023-03-15T08:03:48.783Z,25.91
2023-03-15T08:04:48.783Z,25.98
2023-03-15T08:05:48.776Z,26.03
2023-03-15T08:06:48.789Z,26.07
2023-03-15T08:07:48.800Z,26.09
2023-03-15T08:08:48.792Z,26.10
2023-03-15T08:09:48.777Z,26.09
2023-03-15T08:10:48.737Z,26.07
2023-03-15T08:11:48.731Z,26.08
2023-03-15T08:12:48.874Z,26.08
2023-03-15T08:13:48.728Z,26.05
2023-03-15T08:14:48.697Z,26.02
2023-03-15T08:15:48.715Z,25.91
2023-03-15T08:16:48.715Z,25.84
2023-03-15T08:17:48.705Z,25.86
2023-03-15T08:18:48.728Z,25.85
2023-03-15T08:19:48.673Z,25.84
2023-03-15T08:20:48.688Z,25.82
2023-03-15T08:21:48.699Z,25.83
2023-03-15T08:22:48.861Z,25.82
2023-03-15T08:23:48.702Z,25.88
2023-03-15T08:24:48.720Z,25.95
2023-03-15T08:25:48.770Z,25.98
2023-03-15T08:26:48.616Z,26.03
2023-03-15T08:27:48.631Z,26.06
2023-03-15T08:28:48.628Z,26.08
2023-03-15T08:29:48.689Z,26.10
2023-03-15T08:30:48.650Z,26.09
2023-03-15T08:31:48.668Z,25.69
2023-03-15T08:32:48.885Z,25.61
2023-03-15T08:33:48.605Z,25.56
2023-03-15T08:34:48.574Z,25.45
2023-03-15T08:35:48.617Z,25.45
2023-03-15T08:36:48.667Z,25.44
2023-03-15T08:37:48.760Z,25.43
2023-03-15T08:38:48.692Z,25.26
2023-03-15T08:39:48.714Z,24.87
2023-03-15T08:40:48.762Z,24.76
2023-03-15T08:41:48.769Z,24.74
2023-03-15T08:42:48.866Z,24.83
2023-03-15T08:43:48.759Z,24.95
2023-03-15T08:44:48.771Z,25.10
2023-03-15T08:46:00.054Z,25.23
2023-03-15T08:46:49.895Z,25.35
2023-03-15T08:47:48.874Z,25.46
2023-03-15T08:48:48.816Z,25.56
2023-03-15T08:49:48.812Z,25.65
2023-03-15T08:50:48.797Z,25.71
2023-03-15T08:51:48.802Z,25.77
2023-03-15T08:52:48.897Z,25.80
2023-03-15T08:53:48.810Z,25.86
2023-03-15T08:54:48.780Z,25.90
2023-03-15T08:55:48.770Z,25.92
2023-03-15T08:56:48.755Z,25.95
2023-03-15T08:57:48.830Z,25.97
2023-03-15T08:58:48.761Z,26.00
2023-03-15T08:59:48.813Z,26.03
2023-03-15T09:00:48.797Z,26.04
2023-03-15T09:01:48.904Z,26.08
2023-03-15T09:02:48.932Z,26.10
2023-03-15T09:03:48.931Z,26.13
2023-03-15T09:04:48.990Z,26.15
2023-03-15T09:05:49.048Z,26.18
2023-03-15T09:06:49.131Z,26.20
2023-03-15T09:07:49.167Z,26.23
2023-03-15T09:08:49.215Z,26.26
2023-03-15T09:09:49.260Z,26.28
2023-03-15T09:10:49.295Z,26.30
2023-03-15T09:11:49.379Z,26.32
2023-03-15T09:12:49.386Z,26.34
2023-03-15T09:13:49.423Z,26.36
2023-03-15T09:14:49.465Z,26.36
2023-03-15T09:15:49.511Z,26.37
2023-03-15T09:16:49.575Z,26.37
2023-03-15T09:17:49.925Z,26.40
2023-03-15T09:18:49.602Z,26.43
2023-03-15T09:19:49.615Z,26.47
2023-03-15T09:20:49.631Z,26.48
2023-03-15T09:21:49.663Z,26.50
2023-03-15T09:22:49.739Z,26.51
2023-03-15T09:23:49.757Z,26.52
2023-03-15T09:24:50.458Z,26.53
2023-03-15T09:25:49.877Z,26.54
2023-03-15T09:26:49.824Z,26.54
2023-03-15T09:27:49.910Z,26.53
2023-03-15T09:28:50.917Z,26.53
2023-03-15T09:29:49.907Z,26.47
2023-03-15T09:30:50.468Z,26.46
2023-03-15T09:31:49.804Z,26.20
2023-03-15T09:32:49.919Z,26.05
2023-03-15T09:33:49.907Z,26.04
2023-03-15T09:34:49.811Z,25.99
2023-03-15T09:35:49.833Z,25.96
2023-03-15T09:36:49.834Z,25.95
2023-03-15T09:37:49.841Z,25.93
2023-03-15T09:38:49.857Z,25.91
2023-03-15T09:39:49.955Z,25.89
2023-03-15T09:40:49.957Z,25.87
2023-03-15T09:41:50.019Z,25.83
2023-03-15T09:42:50.006Z,25.79
2023-03-15T09:43:50.417Z,25.75
2023-03-15T09:44:50.034Z,25.72
2023-03-15T09:45:50.036Z,25.73
2023-03-15T09:46:50.117Z,25.72
2023-03-15T09:47:50.118Z,25.73
2023-03-15T09:48:50.118Z,25.74
2023-03-15T09:49:50.100Z,25.74
2023-03-15T09:50:50.141Z,25.70
2023-03-15T09:51:50.087Z,25.67
2023-03-15T09:52:50.148Z,25.61
2023-03-15T09:53:50.420Z,25.58
2023-03-15T09:54:50.125Z,25.59
2023-03-15T09:55:50.123Z,25.60
2023-03-15T09:56:50.183Z,25.61
2023-03-15T09:57:50.138Z,25.61
2023-03-15T09:58:50.435Z,25.61
2023-03-15T09:59:50.208Z,25.64
2023-03-15T10:00:50.254Z,25.65
2023-03-15T10:01:50.203Z,25.65
2023-03-15T10:02:50.268Z,25.68
2023-03-15T10:03:50.458Z,25.68
2023-03-15T10:04:50.255Z,25.68
2023-03-15T10:05:50.265Z,25.72
2023-03-15T10:06:50.278Z,25.77
2023-03-15T10:07:50.365Z,25.76
2023-03-15T10:08:50.451Z,25.75
2023-03-15T10:09:50.406Z,25.75
2023-03-15T10:10:50.405Z,25.75
2023-03-15T10:11:50.367Z,25.72
2023-03-15T10:12:50.417Z,25.68
2023-03-15T10:13:50.392Z,25.66
2023-03-15T10:15:50.435Z,25.69
2023-03-15T10:16:50.414Z,25.72
2023-03-15T10:17:50.370Z,25.74
2023-03-15T10:18:50.370Z,25.76
2023-03-15T10:19:50.383Z,25.76
2023-03-15T10:20:50.381Z,25.78
2023-03-15T10:21:50.358Z,25.75
2023-03-15T10:22:50.359Z,25.74
2023-03-15T10:23:50.468Z,25.73
2023-03-15T10:24:50.395Z,25.74
2023-03-15T10:25:50.386Z,25.68
2023-03-15T10:26:50.405Z,25.68
2023-03-15T10:27:50.377Z,25.68
2023-03-15T10:28:50.405Z,25.65
2023-03-15T10:29:50.396Z,25.60
2023-03-15T10:30:50.388Z,25.60
2023-03-15T10:31:50.451Z,25.57
2023-03-15T10:32:50.406Z,25.57
2023-03-15T10:33:50.370Z,25.58
2023-03-15T10:34:50.365Z,25.56
2023-03-15T10:35:52.488Z,25.25
2023-03-15T10:36:51.400Z,25.10
2023-03-15T10:37:50.389Z,24.89
2023-03-15T10:38:50.399Z,24.43
2023-03-15T10:39:50.399Z,24.37
2023-03-15T10:40:50.324Z,24.14
2023-03-15T10:41:50.383Z,23.91
2023-03-15T10:42:50.398Z,23.95
2023-03-15T10:47:59.601Z,22.65
2023-03-15T10:48:51.324Z,21.94
2023-03-15T10:49:50.351Z,21.70
2023-03-15T10:51:50.292Z,21.77
2023-03-15T10:52:51.489Z,22.12
2023-03-15T10:53:50.455Z,22.49
2023-03-15T10:54:55.404Z,22.80
2023-03-15T10:55:51.285Z,23.07
2023-03-15T10:56:50.293Z,23.33
2023-03-15T10:57:50.278Z,23.58
2023-03-15T10:59:09.146Z,23.77
2023-03-15T10:59:51.268Z,23.94
2023-03-15T11:00:50.327Z,24.09
2023-03-15T11:01:50.384Z,24.20
2023-03-15T11:02:50.326Z,24.29
2023-03-15T11:03:50.436Z,24.36
2023-03-15T11:04:50.240Z,24.47
2023-03-15T11:05:50.241Z,24.55
2023-03-15T11:06:50.194Z,24.65
2023-03-15T11:07:50.209Z,24.74
2023-03-15T11:08:50.190Z,24.84
2023-03-15T11:09:50.183Z,24.91
2023-03-15T11:10:50.174Z,24.97
2023-03-15T11:11:50.154Z,25.04
2023-03-15T11:12:50.166Z,25.11
2023-03-15T11:13:50.245Z,25.16
2023-03-15T11:14:50.259Z,25.21
2023-03-15T11:15:50.402Z,25.26
2023-03-15T11:16:50.429Z,25.30
2023-03-15T11:17:50.442Z,25.30
2023-03-15T11:18:50.433Z,25.31
2023-03-15T11:19:50.498Z,25.34
2023-03-15T11:20:50.532Z,25.38
2023-03-15T11:21:50.559Z,25.42
2023-03-15T11:22:50.588Z,25.46
2023-03-15T11:23:50.626Z,25.51
2023-03-15T11:24:51.005Z,25.55
2023-03-15T11:25:50.669Z,25.60
2023-03-15T11:26:50.678Z,25.59
2023-03-15T11:28:50.649Z,25.66
2023-03-15T11:29:50.689Z,25.70
2023-03-15T11:30:50.672Z,25.73
2023-03-15T11:31:50.715Z,25.78
2023-03-15T11:32:50.806Z,25.81
2023-03-15T11:34:50.964Z,25.85
2023-03-15T11:35:50.811Z,25.89
2023-03-15T11:36:58.709Z,25.92
2023-03-15T11:37:51.836Z,25.91
2023-03-15T11:38:51.469Z,25.92
2023-03-15T11:39:53.732Z,25.92
2023-03-15T11:40:51.841Z,25.95
2023-03-15T11:41:50.810Z,25.97
2023-03-15T11:42:50.824Z,25.96
2023-03-15T11:43:50.782Z,25.94
2023-03-15T11:44:50.808Z,25.96
2023-03-15T11:45:50.813Z,25.95
2023-03-15T11:46:50.865Z,25.95
2023-03-15T11:47:50.895Z,25.94
2023-03-15T11:48:50.954Z,25.94
2023-03-15T11:49:51.058Z,25.95
2023-03-15T11:50:51.081Z,25.94
2023-03-15T11:51:51.169Z,25.92
2023-03-15T11:52:51.206Z,25.92
2023-03-15T11:53:51.291Z,25.94
2023-03-15T11:54:51.309Z,25.95
2023-03-15T11:55:51.357Z,25.96
2023-03-15T11:56:51.441Z,25.96
2023-03-15T11:57:51.505Z,25.97
2023-03-15T11:58:51.585Z,25.97
2023-03-15T11:59:51.651Z,25.96
2023-03-15T12:00:51.714Z,25.94
2023-03-15T12:01:51.966Z,25.95
2023-03-15T12:02:51.821Z,25.94
2023-03-15T12:03:51.871Z,25.92
2023-03-15T12:04:51.926Z,25.91
2023-03-15T12:05:52.047Z,25.91
2023-03-15T12:06:52.051Z,25.92
2023-03-15T12:07:52.131Z,25.93
2023-03-15T12:08:52.217Z,25.95
2023-03-15T12:09:52.306Z,25.94
2023-03-15T12:10:52.279Z,25.96
2023-03-15T12:11:52.355Z,25.97
2023-03-15T12:12:52.425Z,25.97
2023-03-15T12:13:52.483Z,25.95
2023-03-15T12:14:52.557Z,25.97
2023-03-15T12:15:52.728Z,25.96
2023-03-15T12:16:52.670Z,25.96
2023-03-15T12:17:52.742Z,25.96
2023-03-15T12:18:52.837Z,25.97
2023-03-15T12:19:52.890Z,25.97
2023-03-15T12:20:52.920Z,25.96
2023-03-15T12:21:53.044Z,25.95
2023-03-15T12:22:53.065Z,25.93
2023-03-15T12:23:53.084Z,25.93
2023-03-15T12:24:53.457Z,25.92
2023-03-15T12:25:55.270Z,25.89
2023-03-15T12:26:53.306Z,25.89
2023-03-15T12:27:53.309Z,25.87
2023-03-15T12:28:53.361Z,25.83
2023-03-15T12:29:53.545Z,25.74
2023-03-15T12:30:53.397Z,25.69
2023-03-15T12:31:53.395Z,25.65
2023-03-15T12:32:53.440Z,25.62
2023-03-15T12:33:53.358Z,25.59
2023-03-15T12:34:53.475Z,25.58
2023-03-15T12:35:53.403Z,25.58
2023-03-15T12:36:53.365Z,25.60
2023-03-15T12:37:53.392Z,25.60
2023-03-15T12:38:53.357Z,25.61
2023-03-15T12:39:53.347Z,25.63
2023-03-15T12:40:53.374Z,25.64
2023-03-15T12:41:53.386Z,25.65
2023-03-15T12:42:53.390Z,25.66
2023-03-15T12:43:53.422Z,25.67
2023-03-15T12:44:53.421Z,25.66
2023-03-15T12:45:53.487Z,25.67
2023-03-15T12:46:53.535Z,25.68
2023-03-15T12:47:53.520Z,25.69
2023-03-15T12:48:53.610Z,25.69
2023-03-15T12:49:53.596Z,25.68
2023-03-15T12:50:53.613Z,25.68
2023-03-15T12:51:53.668Z,25.67
2023-03-15T12:52:53.650Z,25.67
2023-03-15T12:53:53.653Z,25.67
2023-03-15T12:54:53.738Z,25.68
2023-03-15T12:55:59.470Z,25.69
2023-03-15T12:56:54.727Z,25.67
2023-03-15T12:57:53.764Z,25.67
2023-03-15T12:58:53.723Z,25.67
2023-03-15T12:59:53.694Z,25.67
2023-03-15T13:00:53.679Z,25.68
2023-03-15T13:01:53.682Z,25.68
2023-03-15T13:02:53.769Z,25.67
2023-03-15T13:03:53.697Z,25.66
2023-03-15T13:04:53.676Z,25.66
2023-03-15T13:06:03.407Z,25.66
2023-03-15T13:06:54.658Z,25.66
2023-03-15T13:07:53.654Z,25.67
2023-03-15T13:08:53.665Z,25.67
2023-03-15T13:09:53.640Z,25.67
2023-03-15T13:10:53.658Z,25.67
2023-03-15T13:11:53.662Z,25.67
2023-03-15T13:12:53.622Z,25.67
2023-03-15T13:13:53.613Z,25.66
2023-03-15T13:14:53.598Z,25.66
2023-03-15T13:15:53.681Z,25.65
2023-03-15T13:16:53.587Z,25.64
2023-03-15T13:17:53.597Z,25.63
2023-03-15T13:18:53.591Z,25.63
2023-03-15T13:19:53.657Z,25.62
2023-03-15T13:20:53.630Z,25.62